Phoenix Cross — MRBQ7 — position and weather

sailwx.info

Track history (hours):
 
Tides and Currents Weather Stations Pressure Air Temp Water Temp Dewpoint Dewpoint Depression Visibility Wind Speed Wind Dir Waves Ship Positions

Phoenix Cross

Last reported at 2017-Sep-15 15:24 UTC. Time now 2017-Sep-26 02:21 UTC.
Position N 54°47' W 001°12'.
Warning: this ship's position is 10 days out of date.

Length 30 m; draft 5 m.

Type: Tug. MMSI: 235067452.

Date/timePositionNaut miles runAvg speedWind from/ knotsBaromVisibWave heightAir tempDewpointWater temp
2017-Sep-15 15:24N 54°47' W 001°12'4 9.5
2017-Sep-15 15:01N 54°50' W 001°15'5 9.4
2017-Sep-15 14:31N 54°55' W 001°17'5 9.5
2017-Sep-15 14:01N 54°59' W 001°21'3 6.9
2017-Sep-15 13:31N 55°00' W 001°27'3 5.0
2017-Sep-15 13:00N 54°59' W 001°31'1 1.2
2017-Sep-15 12:31N 54°59' W 001°32'0 0.6
2017-Sep-15 12:00N 54°59' W 001°31'3 5.2
2017-Sep-15 11:30N 54°60' W 001°27'1 1.7
2017-Sep-15 11:00N 55°00' W 001°26'1 2.3
2017-Sep-15 10:31N 54°59' W 001°27'0 0.3
2017-Sep-15 10:00N 54°59' W 001°27'2 3.6
2017-Sep-15 09:30N 55°01' W 001°25'2 3.6
2017-Sep-15 09:00N 54°59' W 001°27'2 4.1
2017-Sep-15 08:30N 54°59' W 001°31'0 0.0
2017-Sep-15 08:00N 54°59' W 001°31'0 0.0
2017-Sep-15 07:30N 54°59' W 001°31'0 0.0
2017-Sep-15 07:00N 54°59' W 001°31'0 0.0
2017-Sep-15 06:30N 54°59' W 001°31'0 0.0
2017-Sep-15 06:00N 54°59' W 001°31'0 0.0
2017-Sep-15 05:30N 54°59' W 001°31'0 0.0
2017-Sep-15 05:00N 54°59' W 001°31'0 0.0
2017-Sep-15 04:30N 54°59' W 001°31'0 0.0
2017-Sep-15 04:00N 54°59' W 001°31'0 0.0
2017-Sep-15 03:30N 54°59' W 001°31'0 0.0
2017-Sep-15 03:01N 54°59' W 001°31'0 0.0
2017-Sep-15 02:31N 54°59' W 001°31'0 0.0
2017-Sep-15 02:01N 54°59' W 001°31'0 0.0
2017-Sep-15 01:31N 54°59' W 001°31'0 0.0
2017-Sep-15 01:00N 54°59' W 001°31'0 0.0
2017-Sep-15 00:30N 54°59' W 001°31'0 0.0
2017-Sep-15 00:01N 54°59' W 001°31'0 0.0
2017-Sep-14 23:31N 54°59' W 001°31'0 0.0
2017-Sep-14 23:00N 54°59' W 001°31'0 0.0
2017-Sep-14 22:30N 54°59' W 001°31'0 0.0
2017-Sep-14 22:00N 54°59' W 001°31'0 0.0
2017-Sep-14 21:30N 54°59' W 001°31'0 0.0
2017-Sep-14 21:01N 54°59' W 001°31'0 0.0
2017-Sep-14 20:30N 54°59' W 001°31'0 0.0
2017-Sep-14 20:00N 54°59' W 001°31'0 0.0
2017-Sep-14 19:30N 54°59' W 001°31'0 0.0
2017-Sep-14 19:00N 54°59' W 001°31'0 0.0
2017-Sep-14 18:30N 54°59' W 001°31'0 0.0
2017-Sep-14 18:00N 54°59' W 001°31'0 0.0
2017-Sep-14 17:30N 54°59' W 001°31'0 0.0
2017-Sep-14 17:00N 54°59' W 001°31'0 0.0
2017-Sep-14 16:30N 54°59' W 001°31'0 0.0
2017-Sep-14 16:00N 54°59' W 001°31'0 0.0
2017-Sep-14 15:30N 54°59' W 001°31'0 0.0
2017-Sep-14 15:00N 54°59' W 001°31'0 0.0
2017-Sep-14 14:30N 54°59' W 001°31'0 0.0
2017-Sep-14 13:59N 54°59' W 001°31'0 0.0
2017-Sep-14 13:30N 54°59' W 001°31'0 0.0
2017-Sep-14 13:00N 54°59' W 001°31'0 0.0
2017-Sep-14 12:30N 54°59' W 001°31'0 0.0
2017-Sep-14 12:01N 54°59' W 001°31'0 0.0
2017-Sep-14 11:31N 54°59' W 001°31'0 0.0
2017-Sep-14 11:01N 54°59' W 001°31'1 2.9
2017-Sep-14 10:30N 54°59' W 001°28'0 1.0
2017-Sep-14 10:00N 54°59' W 001°27'2 3.9
2017-Sep-14 09:30N 54°59' W 001°31'0 0.0
2017-Sep-14 09:00N 54°59' W 001°31'0 0.0
2017-Sep-14 08:30N 54°59' W 001°31'0 0.0
2017-Sep-14 08:00N 54°59' W 001°31'0 0.0
2017-Sep-14 07:31N 54°59' W 001°31'0 0.0
2017-Sep-14 07:01N 54°59' W 001°31'0 0.0
2017-Sep-14 06:30N 54°59' W 001°31'0 0.0
2017-Sep-14 06:00N 54°59' W 001°31'1 1.4
2017-Sep-14 05:30N 54°59' W 001°30'1 2.0
2017-Sep-14 05:00N 54°59' W 001°28'1 1.8
2017-Sep-14 04:30N 54°59' W 001°29'1 1.5
2017-Sep-14 04:00N 54°59' W 001°31'0 0.0
2017-Sep-14 03:30N 54°59' W 001°31'0 0.0
2017-Sep-14 03:00N 54°59' W 001°31'0 0.0
2017-Sep-14 02:30N 54°59' W 001°31'0 0.0
2017-Sep-14 02:00N 54°59' W 001°31'0 0.0
2017-Sep-14 01:30N 54°59' W 001°31'0 0.0
2017-Sep-14 01:00N 54°59' W 001°31'0 0.0
2017-Sep-14 00:30N 54°59' W 001°31'0 0.0
2017-Sep-14 00:00N 54°59' W 001°31'0 0.0
2017-Sep-13 23:31N 54°59' W 001°31'0 0.0
2017-Sep-13 23:00N 54°59' W 001°31'0 0.0
2017-Sep-13 22:30N 54°59' W 001°31'0 0.0
2017-Sep-13 22:01N 54°59' W 001°31'0 0.0
2017-Sep-13 21:31N 54°59' W 001°31'0 0.0
2017-Sep-13 21:00N 54°59' W 001°31'0 0.2
2017-Sep-13 20:31N 54°59' W 001°31'1 1.6
2017-Sep-13 20:01N 54°59' W 001°29'1 2.2
2017-Sep-13 19:30N 54°59' W 001°27'2 3.9
2017-Sep-13 19:00N 55°01' W 001°25'0 0.6
2017-Sep-13 18:30N 55°01' W 001°25'2 4.3
2017-Sep-13 18:01N 54°59' W 001°28'1 2.8
2017-Sep-13 17:30N 54°59' W 001°31'0 0.0
2017-Sep-13 17:01N 54°59' W 001°31'0 0.0
2017-Sep-13 16:30N 54°59' W 001°31'0 0.0
2017-Sep-13 16:00N 54°59' W 001°31'0 0.0
2017-Sep-13 15:30N 54°59' W 001°31'0 0.6
2017-Sep-13 15:00N 54°59' W 001°30'0 0.0
2017-Sep-13 14:30N 54°59' W 001°30'0 0.4
2017-Sep-13 14:00N 54°59' W 001°31'0 0.0
2017-Sep-13 13:30N 54°59' W 001°31'0 0.2
2017-Sep-13 13:00N 54°59' W 001°31'0 0.0
2017-Sep-13 12:30N 54°59' W 001°31'1 1.8
2017-Sep-13 12:00N 54°59' W 001°29'3 5.2
2017-Sep-13 11:31N 55°01' W 001°25'4 7.9
2017-Sep-13 11:01N 54°59' W 001°19'5 9.1
2017-Sep-13 10:30N 54°54' W 001°16'4 8.9
2017-Sep-13 10:00N 54°50' W 001°14'5 9.0
2017-Sep-13 09:30N 54°46' W 001°11'  
Track history (hours):
 
Tides and Currents Weather Stations Pressure Air Temp Water Temp Dewpoint Dewpoint Depression Visibility Wind Speed Wind Dir Waves Ship Positions

Phoenix Cross

Last reported at 2017-Sep-15 15:24 UTC. Time now 2017-Sep-26 02:21 UTC.
Position N 54°47' W 001°12'.
Warning: this ship's position is 10 days out of date.

Length 30 m; draft 5 m.

Type: Tug. MMSI: 235067452.

Date/timePositionNaut miles runAvg speedWind from/ knotsBaromVisibWave heightAir tempDewpointWater temp
2017-Sep-15 15:24N 54°47' W 001°12'4 9.5
2017-Sep-15 15:01N 54°50' W 001°15'5 9.4
2017-Sep-15 14:31N 54°55' W 001°17'5 9.5
2017-Sep-15 14:01N 54°59' W 001°21'3 6.9
2017-Sep-15 13:31N 55°00' W 001°27'3 5.0
2017-Sep-15 13:00N 54°59' W 001°31'1 1.2
2017-Sep-15 12:31N 54°59' W 001°32'0 0.6
2017-Sep-15 12:00N 54°59' W 001°31'3 5.2
2017-Sep-15 11:30N 54°60' W 001°27'1 1.7
2017-Sep-15 11:00N 55°00' W 001°26'1 2.3
2017-Sep-15 10:31N 54°59' W 001°27'0 0.3
2017-Sep-15 10:00N 54°59' W 001°27'2 3.6
2017-Sep-15 09:30N 55°01' W 001°25'2 3.6
2017-Sep-15 09:00N 54°59' W 001°27'2 4.1
2017-Sep-15 08:30N 54°59' W 001°31'0 0.0
2017-Sep-15 08:00N 54°59' W 001°31'0 0.0
2017-Sep-15 07:30N 54°59' W 001°31'0 0.0
2017-Sep-15 07:00N 54°59' W 001°31'0 0.0
2017-Sep-15 06:30N 54°59' W 001°31'0 0.0
2017-Sep-15 06:00N 54°59' W 001°31'0 0.0
2017-Sep-15 05:30N 54°59' W 001°31'0 0.0
2017-Sep-15 05:00N 54°59' W 001°31'0 0.0
2017-Sep-15 04:30N 54°59' W 001°31'0 0.0
2017-Sep-15 04:00N 54°59' W 001°31'0 0.0
2017-Sep-15 03:30N 54°59' W 001°31'0 0.0
2017-Sep-15 03:01N 54°59' W 001°31'0 0.0
2017-Sep-15 02:31N 54°59' W 001°31'0 0.0
2017-Sep-15 02:01N 54°59' W 001°31'0 0.0
2017-Sep-15 01:31N 54°59' W 001°31'0 0.0
2017-Sep-15 01:00N 54°59' W 001°31'0 0.0
2017-Sep-15 00:30N 54°59' W 001°31'0 0.0
2017-Sep-15 00:01N 54°59' W 001°31'0 0.0
2017-Sep-14 23:31N 54°59' W 001°31'0 0.0
2017-Sep-14 23:00N 54°59' W 001°31'0 0.0
2017-Sep-14 22:30N 54°59' W 001°31'0 0.0
2017-Sep-14 22:00N 54°59' W 001°31'0 0.0
2017-Sep-14 21:30N 54°59' W 001°31'0 0.0
2017-Sep-14 21:01N 54°59' W 001°31'0 0.0
2017-Sep-14 20:30N 54°59' W 001°31'0 0.0
2017-Sep-14 20:00N 54°59' W 001°31'0 0.0
2017-Sep-14 19:30N 54°59' W 001°31'0 0.0
2017-Sep-14 19:00N 54°59' W 001°31'0 0.0
2017-Sep-14 18:30N 54°59' W 001°31'0 0.0
2017-Sep-14 18:00N 54°59' W 001°31'0 0.0
2017-Sep-14 17:30N 54°59' W 001°31'0 0.0
2017-Sep-14 17:00N 54°59' W 001°31'0 0.0
2017-Sep-14 16:30N 54°59' W 001°31'0 0.0
2017-Sep-14 16:00N 54°59' W 001°31'0 0.0
2017-Sep-14 15:30N 54°59' W 001°31'0 0.0
2017-Sep-14 15:00N 54°59' W 001°31'0 0.0
2017-Sep-14 14:30N 54°59' W 001°31'0 0.0
2017-Sep-14 13:59N 54°59' W 001°31'0 0.0
2017-Sep-14 13:30N 54°59' W 001°31'0 0.0
2017-Sep-14 13:00N 54°59' W 001°31'0 0.0
2017-Sep-14 12:30N 54°59' W 001°31'0 0.0
2017-Sep-14 12:01N 54°59' W 001°31'0 0.0
2017-Sep-14 11:31N 54°59' W 001°31'0 0.0
2017-Sep-14 11:01N 54°59' W 001°31'1 2.9
2017-Sep-14 10:30N 54°59' W 001°28'0 1.0
2017-Sep-14 10:00N 54°59' W 001°27'2 3.9
2017-Sep-14 09:30N 54°59' W 001°31'0 0.0
2017-Sep-14 09:00N 54°59' W 001°31'0 0.0
2017-Sep-14 08:30N 54°59' W 001°31'0 0.0
2017-Sep-14 08:00N 54°59' W 001°31'0 0.0
2017-Sep-14 07:31N 54°59' W 001°31'0 0.0
2017-Sep-14 07:01N 54°59' W 001°31'0 0.0
2017-Sep-14 06:30N 54°59' W 001°31'0 0.0
2017-Sep-14 06:00N 54°59' W 001°31'1 1.4
2017-Sep-14 05:30N 54°59' W 001°30'1 2.0
2017-Sep-14 05:00N 54°59' W 001°28'1 1.8
2017-Sep-14 04:30N 54°59' W 001°29'1 1.5
2017-Sep-14 04:00N 54°59' W 001°31'0 0.0
2017-Sep-14 03:30N 54°59' W 001°31'0 0.0
2017-Sep-14 03:00N 54°59' W 001°31'0 0.0
2017-Sep-14 02:30N 54°59' W 001°31'0 0.0
2017-Sep-14 02:00N 54°59' W 001°31'0 0.0
2017-Sep-14 01:30N 54°59' W 001°31'0 0.0
2017-Sep-14 01:00N 54°59' W 001°31'0 0.0
2017-Sep-14 00:30N 54°59' W 001°31'0 0.0
2017-Sep-14 00:00N 54°59' W 001°31'0 0.0
2017-Sep-13 23:31N 54°59' W 001°31'0 0.0
2017-Sep-13 23:00N 54°59' W 001°31'0 0.0
2017-Sep-13 22:30N 54°59' W 001°31'0 0.0
2017-Sep-13 22:01N 54°59' W 001°31'0 0.0
2017-Sep-13 21:31N 54°59' W 001°31'0 0.0
2017-Sep-13 21:00N 54°59' W 001°31'0 0.2
2017-Sep-13 20:31N 54°59' W 001°31'1 1.6
2017-Sep-13 20:01N 54°59' W 001°29'1 2.2
2017-Sep-13 19:30N 54°59' W 001°27'2 3.9
2017-Sep-13 19:00N 55°01' W 001°25'0 0.6
2017-Sep-13 18:30N 55°01' W 001°25'2 4.3
2017-Sep-13 18:01N 54°59' W 001°28'1 2.8
2017-Sep-13 17:30N 54°59' W 001°31'0 0.0
2017-Sep-13 17:01N 54°59' W 001°31'0 0.0
2017-Sep-13 16:30N 54°59' W 001°31'0 0.0
2017-Sep-13 16:00N 54°59' W 001°31'0 0.0
2017-Sep-13 15:30N 54°59' W 001°31'0 0.6
2017-Sep-13 15:00N 54°59' W 001°30'0 0.0
2017-Sep-13 14:30N 54°59' W 001°30'0 0.4
2017-Sep-13 14:00N 54°59' W 001°31'0 0.0
2017-Sep-13 13:30N 54°59' W 001°31'0 0.2
2017-Sep-13 13:00N 54°59' W 001°31'0 0.0
2017-Sep-13 12:30N 54°59' W 001°31'1 1.8
2017-Sep-13 12:00N 54°59' W 001°29'3 5.2
2017-Sep-13 11:31N 55°01' W 001°25'4 7.9
2017-Sep-13 11:01N 54°59' W 001°19'5 9.1
2017-Sep-13 10:30N 54°54' W 001°16'4 8.9
2017-Sep-13 10:00N 54°50' W 001°14'5 9.0
2017-Sep-13 09:30N 54°46' W 001°11'  

Dump ship's entire track history